createdAt,value
2018-02-25T00:01:41.963Z,60.20
2018-02-25T00:04:08.783Z,59.70
2018-02-25T00:06:35.654Z,59.40
2018-02-25T00:09:02.552Z,59.50
2018-02-25T00:11:29.375Z,58.90
2018-02-25T00:13:56.218Z,58.60
2018-02-25T00:16:23.099Z,59.00
2018-02-25T00:18:49.922Z,58.00
2018-02-25T00:21:16.829Z,58.10
2018-02-25T00:23:43.669Z,58.40
2018-02-25T00:26:11.244Z,60.80
2018-02-25T00:28:38.838Z,59.40
2018-02-25T00:31:05.648Z,59.40
2018-02-25T00:33:32.470Z,60.90
2018-02-25T00:36:00.114Z,62.10
2018-02-25T00:38:27.730Z,62.20
2018-02-25T00:40:54.554Z,62.10
2018-02-25T00:43:21.399Z,60.80
2018-02-25T00:45:49.018Z,63.40
2018-02-25T00:48:15.854Z,63.40
2018-02-25T00:50:42.665Z,64.10
2018-02-25T00:53:09.505Z,64.20
2018-02-25T00:55:36.327Z,65.30
2018-02-25T00:58:03.130Z,64.80
2018-02-25T01:00:30.014Z,62.70
2018-02-25T01:02:57.562Z,65.40
2018-02-25T01:05:25.154Z,66.10
2018-02-25T01:07:52.026Z,66.10
2018-02-25T01:10:18.886Z,67.50
2018-02-25T01:12:46.511Z,66.80
2018-02-25T01:15:13.342Z,66.70
2018-02-25T01:17:40.174Z,66.90
2018-02-25T01:20:07.047Z,67.40
2018-02-25T01:22:33.907Z,67.90
2018-02-25T01:25:00.799Z,67.00
2018-02-25T01:27:27.638Z,67.50
2018-02-25T01:29:54.466Z,67.10
2018-02-25T01:32:21.295Z,67.10
2018-02-25T01:34:48.170Z,68.60
2018-02-25T01:37:15.010Z,68.80
2018-02-25T01:39:41.822Z,68.30
2018-02-25T01:42:08.646Z,68.20
2018-02-25T01:44:35.511Z,68.00
2018-02-25T01:47:02.332Z,67.70
2018-02-25T01:49:29.162Z,67.50
2018-02-25T01:51:55.998Z,68.00
2018-02-25T01:54:22.830Z,68.50
2018-02-25T01:56:49.707Z,68.40
2018-02-25T01:59:16.554Z,68.00
2018-02-25T02:01:43.418Z,67.30
2018-02-25T02:04:10.249Z,67.30
2018-02-25T02:06:39.070Z,67.30
2018-02-25T02:09:05.937Z,67.00
2018-02-25T02:11:32.782Z,67.20
2018-02-25T02:13:59.590Z,67.20
2018-02-25T02:16:26.442Z,66.90
2018-02-25T02:18:53.291Z,66.20
2018-02-25T02:21:20.186Z,67.10
2018-02-25T02:23:47.048Z,67.30
2018-02-25T02:26:14.618Z,68.40
2018-02-25T02:28:42.206Z,69.50
2018-02-25T02:31:09.028Z,68.90
2018-02-25T02:33:36.570Z,68.10
2018-02-25T02:36:04.175Z,67.90
2018-02-25T02:38:30.999Z,67.80
2018-02-25T02:40:57.838Z,67.50
2018-02-25T02:43:24.690Z,67.80
2018-02-25T02:45:51.530Z,67.80
2018-02-25T02:48:19.082Z,68.20
2018-02-25T02:50:46.662Z,68.90
2018-02-25T02:53:13.516Z,68.00
2018-02-25T02:55:40.424Z,67.80
2018-02-25T02:58:07.974Z,67.00
2018-02-25T03:00:34.794Z,67.00
2018-02-25T03:03:01.611Z,67.10
2018-02-25T03:05:29.194Z,66.30
2018-02-25T03:07:56.035Z,66.30
2018-02-25T03:10:22.866Z,67.00
2018-02-25T03:12:49.722Z,67.00
2018-02-25T03:15:17.309Z,67.50
2018-02-25T03:17:44.899Z,67.60
2018-02-25T03:20:11.734Z,67.50
2018-02-25T03:22:38.567Z,68.60
2018-02-25T03:25:05.426Z,68.60
2018-02-25T03:27:32.966Z,68.10
2018-02-25T03:29:59.827Z,68.00
2018-02-25T03:32:27.398Z,69.10
2018-02-25T03:34:54.269Z,69.00
2018-02-25T03:37:21.127Z,69.50
2018-02-25T03:39:47.954Z,68.00
2018-02-25T03:42:14.766Z,68.90
2018-02-25T03:44:41.614Z,69.10
2018-02-25T03:47:08.454Z,69.00
2018-02-25T03:49:35.302Z,69.00
2018-02-25T03:52:02.154Z,69.20
2018-02-25T03:54:28.974Z,69.00
2018-02-25T03:56:55.876Z,69.00
2018-02-25T03:59:23.470Z,68.40
2018-02-25T04:01:50.301Z,69.10
2018-02-25T04:04:17.178Z,68.30
2018-02-25T04:06:44.007Z,68.60
2018-02-25T04:09:10.847Z,68.70
2018-02-25T04:11:37.710Z,68.30
2018-02-25T04:14:04.553Z,68.50
2018-02-25T04:16:31.366Z,69.10
2018-02-25T04:18:58.222Z,69.00
2018-02-25T04:21:25.076Z,69.00
2018-02-25T04:23:51.889Z,68.80
2018-02-25T04:26:18.774Z,68.90
2018-02-25T04:28:45.602Z,69.20
2018-02-25T04:31:12.427Z,68.80
2018-02-25T04:33:39.278Z,68.60
2018-02-25T04:36:06.142Z,68.20
2018-02-25T04:38:33.027Z,68.80
2018-02-25T04:41:00.610Z,69.00
2018-02-25T04:43:27.446Z,69.00
2018-02-25T04:45:55.035Z,68.90
2018-02-25T04:48:21.861Z,68.80
2018-02-25T04:50:49.430Z,69.30
2018-02-25T04:53:16.253Z,69.30
2018-02-25T04:55:43.868Z,69.20
2018-02-25T04:58:10.702Z,69.20
2018-02-25T05:00:37.503Z,67.40
2018-02-25T05:03:04.419Z,68.80
2018-02-25T05:05:31.273Z,69.70
2018-02-25T05:07:58.851Z,68.50
2018-02-25T05:10:25.717Z,68.40
2018-02-25T05:12:52.535Z,67.50
2018-02-25T05:15:19.410Z,68.90
2018-02-25T05:17:46.253Z,68.40
2018-02-25T05:20:13.071Z,68.10
2018-02-25T05:22:39.927Z,67.50
2018-02-25T05:25:06.811Z,68.60
2018-02-25T05:27:33.670Z,68.30
2018-02-25T05:30:01.264Z,69.30
2018-02-25T05:32:28.170Z,69.20
2018-02-25T05:34:55.781Z,68.10
2018-02-25T05:37:22.644Z,68.10
2018-02-25T05:39:49.547Z,67.20
2018-02-25T05:42:16.403Z,66.80
2018-02-25T05:44:43.262Z,67.60
2018-02-25T05:47:10.134Z,68.50
2018-02-25T05:49:37.723Z,68.40
2018-02-25T05:52:04.579Z,68.40
2018-02-25T05:54:32.119Z,69.50
2018-02-25T05:56:59.693Z,69.40
2018-02-25T05:59:26.526Z,69.20
2018-02-25T06:01:53.421Z,68.50
2018-02-25T06:04:21.034Z,67.30
2018-02-25T06:06:47.902Z,67.20
2018-02-25T06:09:14.750Z,67.50
2018-02-25T06:11:41.581Z,67.50
2018-02-25T06:14:08.463Z,66.80
2018-02-25T06:16:35.314Z,66.50
2018-02-25T06:19:02.963Z,67.20
2018-02-25T06:21:29.863Z,66.50
2018-02-25T06:23:56.693Z,66.50
2018-02-25T06:26:23.563Z,65.60
2018-02-25T06:28:50.418Z,66.40
2018-02-25T06:31:17.271Z,66.30
2018-02-25T06:33:44.132Z,65.10
2018-02-25T06:36:10.998Z,65.00
2018-02-25T06:38:38.568Z,65.40
2018-02-25T06:41:05.382Z,65.40
2018-02-25T06:43:32.984Z,64.70
2018-02-25T06:45:59.835Z,64.60
2018-02-25T06:48:26.658Z,64.70
2018-02-25T06:50:53.518Z,63.30
2018-02-25T06:53:20.509Z,64.70
2018-02-25T06:55:47.435Z,65.00
2018-02-25T06:58:14.306Z,65.80
2018-02-25T07:00:41.938Z,64.80
2018-02-25T07:03:08.817Z,64.60
2018-02-25T07:05:36.391Z,64.50
2018-02-25T07:08:03.973Z,64.90
2018-02-25T07:10:31.022Z,64.90
2018-02-25T07:12:57.959Z,65.20
2018-02-25T07:15:24.814Z,66.30
2018-02-25T07:17:51.666Z,65.70
2018-02-25T07:20:18.524Z,64.50
2018-02-25T07:22:45.373Z,64.80
2018-02-25T07:25:12.225Z,64.70
2018-02-25T07:27:39.130Z,63.50
2018-02-25T07:30:06.095Z,62.80
2018-02-25T07:32:33.021Z,60.00
2018-02-25T07:35:00.020Z,57.80
2018-02-25T07:37:27.995Z,57.90
2018-02-25T07:39:55.622Z,57.70
2018-02-25T07:42:23.312Z,57.00
2018-02-25T07:44:50.914Z,55.70
2018-02-25T07:47:17.737Z,55.70
2018-02-25T07:49:44.574Z,56.60
2018-02-25T07:52:12.241Z,55.20
2018-02-25T07:54:39.862Z,55.10
2018-02-25T07:57:08.057Z,55.40
2018-02-25T07:59:35.163Z,55.40
2018-02-25T08:02:02.815Z,55.30
2018-02-25T08:04:29.626Z,55.30
2018-02-25T08:06:57.242Z,54.40
2018-02-25T08:09:24.822Z,54.80
2018-02-25T08:11:51.651Z,54.70
2018-02-25T08:14:18.466Z,55.10
2018-02-25T08:16:45.313Z,55.80
2018-02-25T08:19:12.130Z,55.70
2018-02-25T08:21:38.966Z,55.70
2018-02-25T08:24:05.842Z,55.10
2018-02-25T08:26:32.638Z,54.80
2018-02-25T08:29:00.209Z,54.70
2018-02-25T08:31:27.102Z,54.70
2018-02-25T08:33:53.927Z,54.80
2018-02-25T08:36:20.774Z,54.20
2018-02-25T08:38:47.634Z,54.90
2018-02-25T08:41:14.493Z,55.10
2018-02-25T08:43:41.326Z,55.00
2018-02-25T08:46:08.170Z,54.30
2018-02-25T08:48:35.757Z,53.50
2018-02-25T08:51:03.362Z,54.00
2018-02-25T08:53:31.069Z,53.90
2018-02-25T08:55:57.933Z,53.90
2018-02-25T08:58:25.621Z,53.40
2018-02-25T09:00:52.476Z,53.30
2018-02-25T09:03:19.458Z,53.20
2018-02-25T09:05:46.390Z,53.10
2018-02-25T09:08:13.386Z,53.40
2018-02-25T09:10:41.118Z,53.40
2018-02-25T09:13:08.318Z,53.40
2018-02-25T09:15:35.273Z,53.60
2018-02-25T09:18:02.351Z,54.30
2018-02-25T09:20:29.237Z,53.70
2018-02-25T09:22:56.062Z,53.10
2018-02-25T09:25:23.030Z,53.40
2018-02-25T09:27:49.840Z,52.50
2018-02-25T09:30:17.437Z,52.30
2018-02-25T09:32:44.294Z,52.30
2018-02-25T09:35:11.393Z,52.20
2018-02-25T09:37:38.347Z,51.30
2018-02-25T09:40:05.182Z,50.90
2018-02-25T09:42:32.782Z,51.60
2018-02-25T09:44:59.635Z,51.60
2018-02-25T09:47:26.515Z,51.00
2018-02-25T09:49:53.369Z,50.10
2018-02-25T09:52:20.940Z,50.40
2018-02-25T09:54:48.586Z,49.60
2018-02-25T09:57:16.905Z,49.50
2018-02-25T09:59:43.814Z,49.70
2018-02-25T10:02:10.642Z,48.50
2018-02-25T10:04:38.415Z,51.10
2018-02-25T10:07:06.002Z,51.10
2018-02-25T10:09:32.903Z,50.30
2018-02-25T10:11:59.806Z,50.80
2018-02-25T10:14:26.814Z,50.50
2018-02-25T10:16:54.579Z,49.40
2018-02-25T10:19:24.749Z,49.40
2018-02-25T10:21:53.419Z,47.40
2018-02-25T10:24:20.401Z,45.60
2018-02-25T10:26:47.374Z,43.30
2018-02-25T10:29:15.123Z,41.50
2018-02-25T10:31:42.773Z,41.40
2018-02-25T10:34:10.662Z,42.20
2018-02-25T10:36:37.858Z,42.20
2018-02-25T10:39:05.297Z,42.70
2018-02-25T10:41:32.155Z,41.70
2018-02-25T10:44:00.344Z,43.50
2018-02-25T10:46:27.204Z,41.40
2018-02-25T10:48:54.086Z,42.90
2018-02-25T10:51:21.764Z,44.40
2018-02-25T10:53:48.754Z,44.40
2018-02-25T10:56:15.674Z,44.50
2018-02-25T10:58:42.674Z,45.70
2018-02-25T11:01:09.679Z,42.80
2018-02-25T11:03:36.534Z,41.90
2018-02-25T11:06:03.386Z,41.60
2018-02-25T11:08:30.214Z,40.50
2018-02-25T11:10:58.100Z,40.40
2018-02-25T11:13:25.194Z,40.10
2018-02-25T11:15:52.100Z,37.90
2018-02-25T11:18:18.942Z,40.50
2018-02-25T11:20:45.772Z,42.90
2018-02-25T11:23:12.599Z,40.10
2018-02-25T11:25:40.197Z,39.00
2018-02-25T11:28:08.039Z,35.80
2018-02-25T11:30:35.063Z,35.80
2018-02-25T11:33:02.059Z,35.20
2018-02-25T11:35:28.932Z,32.60
2018-02-25T11:37:55.797Z,29.60
2018-02-25T11:40:23.418Z,29.30
2018-02-25T11:42:50.282Z,29.30
2018-02-25T11:45:17.135Z,29.60
2018-02-25T11:47:44.054Z,26.90
2018-02-25T11:50:10.846Z,28.10
2018-02-25T11:52:38.042Z,26.60
2018-02-25T11:55:04.986Z,26.30
2018-02-25T11:57:32.943Z,24.30
2018-02-25T12:00:00.128Z,24.30
2018-02-25T12:02:27.134Z,23.80
2018-02-25T12:04:54.119Z,24.70
2018-02-25T12:07:21.196Z,23.40
2018-02-25T12:09:55.170Z,23.60
2018-02-25T12:12:22.156Z,22.60
2018-02-25T12:14:49.156Z,22.30
2018-02-25T12:17:17.577Z,23.10
2018-02-25T12:19:44.599Z,23.10
2018-02-25T12:22:11.578Z,23.00
2018-02-25T12:24:38.719Z,23.00
2018-02-25T12:27:05.639Z,21.30
2018-02-25T12:29:32.514Z,21.60
2018-02-25T12:31:59.638Z,20.20
2018-02-25T12:34:26.539Z,22.20
2018-02-25T12:36:53.493Z,21.90
2018-02-25T12:39:22.022Z,20.50
2018-02-25T12:41:49.806Z,20.80
2018-02-25T12:44:17.401Z,20.40
2018-02-25T12:46:45.323Z,19.60
2018-02-25T12:49:12.355Z,19.60
2018-02-25T12:51:39.355Z,19.90
2018-02-25T12:54:06.249Z,19.90
2018-02-25T12:56:33.102Z,19.20
2018-02-25T12:58:59.949Z,17.90
2018-02-25T13:01:26.814Z,18.10
2018-02-25T13:03:53.636Z,19.10
2018-02-25T13:06:20.498Z,18.60
2018-02-25T13:08:47.370Z,18.40
2018-02-25T13:11:14.167Z,19.10
2018-02-25T13:13:40.998Z,18.40
2018-02-25T13:16:07.818Z,18.60
2018-02-25T13:18:34.673Z,18.10
2018-02-25T13:21:01.464Z,19.00
2018-02-25T13:23:28.314Z,19.60
2018-02-25T13:25:55.137Z,19.00
2018-02-25T13:28:21.970Z,18.00
2018-02-25T13:30:48.821Z,18.30
2018-02-25T13:33:15.659Z,16.80
2018-02-25T13:35:42.555Z,17.50
2018-02-25T13:38:09.413Z,17.10
2018-02-25T13:40:37.050Z,17.30
2018-02-25T13:43:03.938Z,17.10
2018-02-25T13:45:30.779Z,17.40
2018-02-25T13:47:57.939Z,17.30
2018-02-25T13:50:24.906Z,17.80
2018-02-25T13:52:52.802Z,18.30
2018-02-25T13:55:19.826Z,18.80
2018-02-25T13:57:46.823Z,18.80
2018-02-25T14:00:13.686Z,18.90
2018-02-25T14:02:40.498Z,18.10
2018-02-25T14:05:07.326Z,17.70
2018-02-25T14:07:34.179Z,17.80
2018-02-25T14:10:01.034Z,19.10
2018-02-25T14:12:27.880Z,22.10
2018-02-25T14:14:54.770Z,22.90
2018-02-25T14:17:23.556Z,24.40
2018-02-25T14:19:53.473Z,28.00
2018-02-25T14:22:23.883Z,27.90
2018-02-25T14:24:51.967Z,29.40
2018-02-25T14:27:18.936Z,29.30
2018-02-25T14:29:45.784Z,30.10
2018-02-25T14:32:12.842Z,31.80
2018-02-25T14:34:40.541Z,31.80
2018-02-25T14:37:08.894Z,31.90
2018-02-25T14:39:35.970Z,31.90
2018-02-25T14:42:03.570Z,34.20
2018-02-25T14:44:31.367Z,34.10
2018-02-25T14:46:58.423Z,33.30
2018-02-25T14:49:25.403Z,34.70
2018-02-25T14:51:52.435Z,35.70
2018-02-25T14:54:20.004Z,36.40
2018-02-25T14:56:47.654Z,36.60
2018-02-25T14:59:14.617Z,36.70
2018-02-25T15:01:41.697Z,36.70
2018-02-25T15:04:08.670Z,37.80
2018-02-25T15:06:35.591Z,37.20
2018-02-25T15:09:02.563Z,38.00
2018-02-25T15:11:30.714Z,38.00
2018-02-25T15:13:57.754Z,37.80
2018-02-25T15:16:24.761Z,38.40
2018-02-25T15:18:51.776Z,38.30
2018-02-25T15:21:19.554Z,40.80
2018-02-25T15:23:46.787Z,40.80
2018-02-25T15:26:13.865Z,40.90
2018-02-25T15:28:40.859Z,41.20
2018-02-25T15:31:08.682Z,41.90
2018-02-25T15:33:35.814Z,41.90
2018-02-25T15:36:02.850Z,42.60
2018-02-25T15:38:30.779Z,43.20
2018-02-25T15:40:57.738Z,43.40
2018-02-25T15:43:25.564Z,43.40
2018-02-25T15:45:52.550Z,43.60
2018-02-25T15:48:19.764Z,44.90
2018-02-25T15:50:48.311Z,46.00
2018-02-25T15:53:15.870Z,46.00
2018-02-25T15:55:43.414Z,46.10
2018-02-25T15:58:19.088Z,45.40
2018-02-25T16:00:46.212Z,45.40
2018-02-25T16:03:14.053Z,45.20
2018-02-25T16:05:41.074Z,43.30
2018-02-25T16:08:08.035Z,44.00
2018-02-25T16:10:35.072Z,45.50
2018-02-25T16:13:03.486Z,45.00
2018-02-25T16:15:30.443Z,45.60
2018-02-25T16:17:57.951Z,46.00
2018-02-25T16:20:25.103Z,45.80
2018-02-25T16:22:52.027Z,45.50
2018-02-25T16:25:19.231Z,46.10
2018-02-25T16:27:46.087Z,46.50
2018-02-25T16:30:12.983Z,47.40
2018-02-25T16:32:40.793Z,47.70
2018-02-25T16:35:08.554Z,47.70
2018-02-25T16:37:37.446Z,47.70
2018-02-25T16:40:04.334Z,48.10
2018-02-25T16:42:31.355Z,47.90
2018-02-25T16:44:58.431Z,48.30
2018-02-25T16:47:26.195Z,48.50
2018-02-25T16:49:53.891Z,48.90
2018-02-25T16:52:20.938Z,48.90
2018-02-25T16:54:47.956Z,48.70
2018-02-25T16:57:15.746Z,49.00
2018-02-25T16:59:42.718Z,49.00
2018-02-25T17:02:09.690Z,48.90
2018-02-25T17:04:38.087Z,49.30
2018-02-25T17:07:05.198Z,49.20
2018-02-25T17:09:32.130Z,50.10
2018-02-25T17:11:59.202Z,50.50
2018-02-25T17:14:27.482Z,51.70
2018-02-25T17:16:54.567Z,52.50
2018-02-25T17:19:22.191Z,52.20
2018-02-25T17:21:50.046Z,52.10
2018-02-25T17:24:17.718Z,53.10
2018-02-25T17:26:44.728Z,53.10
2018-02-25T17:29:11.692Z,53.20
2018-02-25T17:31:38.712Z,53.00
2018-02-25T17:34:07.208Z,52.90
2018-02-25T17:36:34.879Z,52.80
2018-02-25T17:39:01.904Z,52.70
2018-02-25T17:41:28.891Z,52.80
2018-02-25T17:43:57.386Z,53.10
2018-02-25T17:46:25.108Z,53.30
2018-02-25T17:48:52.107Z,53.80
2018-02-25T17:51:19.840Z,54.20
2018-02-25T17:53:46.819Z,54.10
2018-02-25T17:56:13.808Z,53.50
2018-02-25T17:58:40.797Z,53.20
2018-02-25T18:01:08.599Z,52.70
2018-02-25T18:03:35.607Z,53.10
2018-02-25T18:06:03.265Z,53.50
2018-02-25T18:08:30.254Z,53.20
2018-02-25T18:10:57.533Z,53.50
2018-02-25T18:13:24.835Z,53.60
2018-02-25T18:15:51.879Z,53.90
2018-02-25T18:18:19.050Z,53.80
2018-02-25T18:20:46.314Z,54.10
2018-02-25T18:23:13.697Z,54.00
2018-02-25T18:25:40.917Z,54.60
2018-02-25T18:28:08.614Z,55.10
2018-02-25T18:30:38.135Z,55.20
2018-02-25T18:33:05.159Z,55.10
2018-02-25T18:35:32.304Z,55.50
2018-02-25T18:37:59.352Z,55.70
2018-02-25T18:40:26.227Z,56.60
2018-02-25T18:42:53.915Z,56.80
2018-02-25T18:45:20.932Z,57.30
2018-02-25T18:47:48.639Z,57.40
2018-02-25T18:50:16.303Z,57.80
2018-02-25T18:52:43.763Z,57.80
2018-02-25T18:55:10.682Z,58.00
2018-02-25T18:57:39.056Z,58.10
2018-02-25T19:00:07.672Z,58.00
2018-02-25T19:02:34.595Z,57.90
2018-02-25T19:05:04.607Z,58.40
2018-02-25T19:07:32.883Z,58.40
2018-02-25T19:09:59.750Z,58.50
2018-02-25T19:12:26.646Z,58.00
2018-02-25T19:14:54.407Z,57.80
2018-02-25T19:17:21.379Z,57.60
2018-02-25T19:19:48.307Z,57.90
2018-02-25T19:22:16.136Z,58.30
2018-02-25T19:24:43.002Z,58.30
2018-02-25T19:27:09.844Z,58.70
2018-02-25T19:29:36.818Z,58.60
2018-02-25T19:32:03.895Z,59.60
2018-02-25T19:34:30.923Z,59.50
2018-02-25T19:37:04.900Z,59.70
2018-02-25T19:39:37.743Z,59.80
2018-02-25T19:42:04.806Z,59.50
2018-02-25T19:44:31.802Z,59.50
2018-02-25T19:46:58.833Z,59.60
2018-02-25T19:49:25.719Z,60.10
2018-02-25T19:51:53.511Z,59.10
2018-02-25T19:54:20.514Z,59.10
2018-02-25T19:56:47.501Z,59.00
2018-02-25T19:59:20.183Z,59.80
2018-02-25T20:01:48.255Z,59.70
2018-02-25T20:04:15.162Z,60.20
2018-02-25T20:06:42.111Z,60.50
2018-02-25T20:09:09.842Z,60.60
2018-02-25T20:11:37.566Z,60.70
2018-02-25T20:14:04.742Z,60.70
2018-02-25T20:16:31.623Z,60.60
2018-02-25T20:18:58.470Z,60.10
2018-02-25T20:23:59.119Z,59.70
2018-02-25T20:26:26.213Z,59.70
2018-02-25T20:28:53.220Z,59.80
2018-02-25T20:31:20.878Z,60.00
2018-02-25T20:33:49.169Z,59.80
2018-02-25T20:36:16.055Z,59.60
2018-02-25T20:38:43.822Z,59.90
2018-02-25T20:41:10.927Z,59.90
2018-02-25T20:43:38.806Z,59.90
2018-02-25T20:46:05.675Z,59.90
2018-02-25T20:48:32.527Z,59.90
2018-02-25T20:50:59.779Z,60.20
2018-02-25T20:53:26.729Z,59.70
2018-02-25T20:55:53.637Z,59.60
2018-02-25T20:58:20.614Z,59.80
2018-02-25T21:00:47.574Z,59.60
2018-02-25T21:03:14.426Z,60.20
2018-02-25T21:05:41.599Z,60.70
2018-02-25T21:08:09.235Z,60.60
2018-02-25T21:10:36.910Z,60.00
2018-02-25T21:13:05.035Z,60.00
2018-02-25T21:15:32.077Z,59.90
2018-02-25T21:17:59.747Z,59.90
2018-02-25T21:20:26.653Z,60.00
2018-02-25T21:22:53.527Z,60.40
2018-02-25T21:25:20.356Z,60.90
2018-02-25T21:27:48.210Z,61.10
2018-02-25T21:30:15.338Z,61.00
2018-02-25T21:32:42.275Z,60.30
2018-02-25T21:35:09.291Z,60.40
2018-02-25T21:37:36.964Z,60.80
2018-02-25T21:40:04.680Z,61.30
2018-02-25T21:42:31.629Z,61.20
2018-02-25T21:44:58.558Z,62.00
2018-02-25T21:47:25.422Z,63.00
2018-02-25T21:49:53.014Z,63.40
2018-02-25T21:52:19.865Z,63.30
2018-02-25T21:54:52.826Z,63.40
2018-02-25T21:57:25.631Z,62.20
2018-02-25T21:59:58.523Z,62.00
2018-02-25T22:02:31.337Z,62.60
2018-02-25T22:04:58.163Z,63.20
2018-02-25T22:07:25.015Z,63.40
2018-02-25T22:09:51.889Z,63.80
2018-02-25T22:12:18.733Z,64.30
2018-02-25T22:14:45.561Z,64.30
2018-02-25T22:17:13.166Z,64.40
2018-02-25T22:19:40.001Z,63.50
2018-02-25T22:22:06.826Z,63.80
2018-02-25T22:24:33.658Z,64.10
2018-02-25T22:27:00.502Z,64.20
2018-02-25T22:29:27.361Z,64.30
2018-02-25T22:31:54.182Z,64.00
2018-02-25T22:34:21.018Z,63.30
2018-02-25T22:36:48.635Z,63.40
2018-02-25T22:39:15.458Z,63.20
2018-02-25T22:41:42.279Z,63.40
2018-02-25T22:44:09.155Z,63.30
2018-02-25T22:46:36.041Z,63.30
2018-02-25T22:49:02.891Z,63.00
2018-02-25T22:51:29.735Z,64.50
2018-02-25T22:53:56.543Z,63.50
2018-02-25T22:56:24.134Z,62.70
2018-02-25T22:58:51.008Z,62.70
2018-02-25T23:01:17.818Z,62.00
2018-02-25T23:03:44.633Z,62.10
2018-02-25T23:06:11.495Z,62.10
2018-02-25T23:08:38.331Z,62.40
2018-02-25T23:11:05.146Z,62.30
2018-02-25T23:13:32.755Z,63.50
2018-02-25T23:15:59.585Z,63.40
2018-02-25T23:18:26.413Z,63.20
2018-02-25T23:20:53.268Z,62.90
2018-02-25T23:23:20.102Z,62.30
2018-02-25T23:25:46.933Z,62.60
2018-02-25T23:28:14.514Z,62.70
2018-02-25T23:30:41.355Z,62.70
2018-02-25T23:33:08.198Z,62.40
2018-02-25T23:35:35.075Z,62.10
2018-02-25T23:38:01.909Z,62.00
2018-02-25T23:40:28.734Z,62.50
2018-02-25T23:42:55.570Z,64.40
2018-02-25T23:45:22.437Z,64.30
2018-02-25T23:47:49.270Z,63.30
2018-02-25T23:50:16.118Z,62.70
2018-02-25T23:52:42.943Z,62.40
2018-02-25T23:55:09.763Z,62.20
2018-02-25T23:57:36.617Z,62.70
